Time;durP1;ratioP1;P1;durP2;ratioP2;P2;SDS_P1;SDS_P2;PMS_P1;PMS_P2;Temp;Humidity;BMP_temperature;BMP_pressure;BME280_temperature;BME280_humidity;BME280_pressure;Samples;Min_cycle;Max_cycle;Signal;HPM_P1;HPM_P2
2021/10/16 00:01:58;;;;;;;16.90;9.73;;;;;;;5.19;100.00;96923.16;5000494;28;20101;-61
2021/10/16 00:04:24;;;;;;;14.95;9.73;;;;;;;5.36;100.00;96932.00;4976212;28;20045;-62
2021/10/16 00:06:49;;;;;;;15.45;9.57;;;;;;;5.32;100.00;96928.34;5001107;28;20050;-62
2021/10/16 00:09:15;;;;;;;14.13;8.68;;;;;;;5.17;100.00;96926.22;4995553;28;20527;-62
2021/10/16 00:11:41;;;;;;;14.27;9.05;;;;;;;5.07;100.00;96932.78;4995247;28;20659;-61
2021/10/16 00:14:06;;;;;;;17.08;9.55;;;;;;;5.09;100.00;96932.44;4993997;28;20042;-62
2021/10/16 00:16:32;;;;;;;12.13;7.80;;;;;;;5.07;100.00;96931.97;5000492;28;20038;-62
2021/10/16 00:18:57;;;;;;;12.68;8.52;;;;;;;4.76;100.00;96933.81;4997842;28;20045;-62
2021/10/16 00:21:22;;;;;;;19.45;9.43;;;;;;;4.56;100.00;96931.78;4994714;28;20945;-62
2021/10/16 00:23:48;;;;;;;15.38;8.60;;;;;;;4.34;100.00;96936.28;4998831;28;20074;-62
2021/10/16 00:26:14;;;;;;;15.25;8.57;;;;;;;4.36;100.00;96930.53;4990799;28;20104;-62
2021/10/16 00:28:40;;;;;;;15.13;8.60;;;;;;;4.52;100.00;96939.78;5000289;28;20046;-60
2021/10/16 00:31:05;;;;;;;13.18;8.13;;;;;;;4.48;100.00;96935.31;4997034;28;20149;-64
2021/10/16 00:33:31;;;;;;;15.07;9.00;;;;;;;4.60;100.00;96940.88;4999564;28;20052;-61
2021/10/16 00:35:58;;;;;;;15.15;8.75;;;;;;;4.77;100.00;96940.84;4969248;28;20141;-62
2021/10/16 00:38:23;;;;;;;15.68;8.45;;;;;;;4.90;100.00;96941.00;5005772;28;20037;-62
2021/10/16 00:40:49;;;;;;;16.05;9.43;;;;;;;4.83;100.00;96935.25;5000673;28;20037;-61
2021/10/16 00:43:14;;;;;;;16.95;8.95;;;;;;;4.76;100.00;96936.53;4995083;28;20131;-61
2021/10/16 00:45:40;;;;;;;15.60;8.65;;;;;;;4.77;100.00;96943.56;5000894;28;20045;-61
2021/10/16 00:48:05;;;;;;;13.05;8.55;;;;;;;4.72;100.00;96938.31;4995164;28;20070;-61
2021/10/16 00:50:31;;;;;;;16.13;9.38;;;;;;;4.71;100.00;96942.13;5000815;28;20042;-61
2021/10/16 00:52:56;;;;;;;15.50;8.88;;;;;;;4.68;100.00;96937.38;4997286;28;20056;-59
2021/10/16 00:55:23;;;;;;;15.27;9.32;;;;;;;4.53;100.00;96937.84;4977194;28;20056;-60
2021/10/16 00:57:49;;;;;;;17.02;9.52;;;;;;;4.35;100.00;96931.66;4981035;28;20041;-60
2021/10/16 01:00:15;;;;;;;15.05;8.73;;;;;;;4.21;100.00;96942.66;4995409;28;20058;-60
2021/10/16 01:02:41;;;;;;;14.70;9.15;;;;;;;4.16;100.00;96940.09;4997195;28;20625;-59
2021/10/16 01:05:07;;;;;;;13.13;8.40;;;;;;;4.20;100.00;96941.06;4992508;28;20137;-61
2021/10/16 01:07:38;;;;;;;14.73;8.98;;;;;;;4.17;100.00;96941.69;4995335;28;20046;-59
2021/10/16 01:10:06;;;;;;;16.95;9.18;;;;;;;4.14;100.00;96934.19;5018455;23;20084;-66
2021/10/16 01:12:31;;;;;;;14.38;8.23;;;;;;;4.22;100.00;96936.13;5040743;28;20048;-65
2021/10/16 01:15:03;;;;;;;14.95;9.23;;;;;;;4.17;100.00;96933.56;5021385;28;20099;-65
2021/10/16 01:17:30;;;;;;;15.18;9.10;;;;;;;3.98;100.00;96942.00;5037961;28;20072;-63
2021/10/16 01:20:21;;;;;;;16.95;9.48;;;;;;;4.06;100.00;96935.81;5031517;28;20129;-64
2021/10/16 01:22:50;;;;;;;15.48;9.68;;;;;;;3.96;100.00;96936.09;5003040;28;20042;-64
2021/10/16 01:25:24;;;;;;;18.83;9.90;;;;;;;3.79;100.00;96940.38;5014191;28;20045;-64
2021/10/16 01:27:50;;;;;;;18.63;9.88;;;;;;;3.72;100.00;96934.63;5019703;28;20041;-65
2021/10/16 01:30:22;;;;;;;22.23;10.80;;;;;;;3.62;100.00;96933.03;5014605;28;20044;-65
2021/10/16 01:32:47;;;;;;;22.75;12.13;;;;;;;3.60;100.00;96935.28;5001927;28;20037;-64
2021/10/16 01:35:13;;;;;;;20.15;11.95;;;;;;;3.53;100.00;96929.50;4995784;28;20048;-64
2021/10/16 01:37:41;;;;;;;18.98;11.18;;;;;;;3.55;100.00;96927.28;5016046;28;20067;-64
2021/10/16 01:40:09;;;;;;;20.48;11.43;;;;;;;3.60;100.00;96931.75;5013905;28;20037;-64
2021/10/16 01:42:36;;;;;;;19.55;11.85;;;;;;;3.71;100.00;96932.25;5019569;28;20056;-63
2021/10/16 01:45:02;;;;;;;16.23;10.20;;;;;;;3.77;100.00;96926.38;5020675;28;20065;-64
2021/10/16 01:47:28;;;;;;;17.92;10.02;;;;;;;3.85;100.00;96915.84;5016916;28;20057;-64
2021/10/16 01:49:56;;;;;;;19.83;10.25;;;;;;;3.85;100.00;96919.34;5020378;28;20072;-64
2021/10/16 01:52:22;;;;;;;16.73;10.68;;;;;;;3.93;100.00;96923.22;5015313;28;20037;-64
2021/10/16 01:54:48;;;;;;;18.30;9.93;;;;;;;3.98;100.00;96921.13;5002469;28;20038;-65
2021/10/16 01:57:13;;;;;;;18.45;9.82;;;;;;;3.92;100.00;96913.47;4995774;28;20049;-64
2021/10/16 01:59:38;;;;;;;13.68;8.70;;;;;;;3.81;100.00;96921.91;5002940;28;20033;-65
2021/10/16 02:02:05;;;;;;;14.32;8.68;;;;;;;3.79;100.00;96916.00;5029532;28;20095;-63
2021/10/16 02:04:31;;;;;;;13.90;8.32;;;;;;;3.80;100.00;96911.41;5017710;28;20357;-64
2021/10/16 02:06:56;;;;;;;12.93;8.65;;;;;;;3.82;100.00;96918.09;5041891;28;20073;-64
2021/10/16 02:09:22;;;;;;;18.05;9.57;;;;;;;3.75;100.00;96915.06;5038837;28;20187;-66
2021/10/16 02:11:47;;;;;;;16.88;8.75;;;;;;;3.68;100.00;96913.94;5064915;28;20484;-64
2021/10/16 02:14:13;;;;;;;14.27;8.48;;;;;;;3.74;100.00;96918.88;5061663;28;20064;-64
2021/10/16 02:16:38;;;;;;;19.02;10.13;;;;;;;3.57;100.00;96916.13;5054218;28;20037;-63
2021/10/16 02:19:04;;;;;;;12.88;8.10;;;;;;;3.69;100.00;96920.94;5048381;28;20712;-63
2021/10/16 02:21:30;;;;;;;14.05;9.15;;;;;;;3.65;100.00;96915.34;5040520;28;20048;-63
2021/10/16 02:23:55;;;;;;;15.45;9.38;;;;;;;3.52;100.00;96924.41;5020111;28;20041;-62
2021/10/16 02:26:21;;;;;;;14.02;8.65;;;;;;;3.61;100.00;96922.50;5038832;28;20039;-62
2021/10/16 02:28:46;;;;;;;18.10;9.48;;;;;;;3.62;100.00;96922.22;5041104;28;20182;-64
2021/10/16 02:31:12;;;;;;;16.33;9.40;;;;;;;3.55;100.00;96921.88;5038012;28;20549;-63
2021/10/16 02:33:37;;;;;;;16.52;9.25;;;;;;;3.48;100.00;96924.25;5042111;28;20037;-63
2021/10/16 02:36:03;;;;;;;12.95;8.45;;;;;;;3.48;100.00;96926.94;5028874;28;20125;-62
2021/10/16 02:38:29;;;;;;;13.52;8.18;;;;;;;3.36;100.00;96930.25;5031167;28;20048;-63
2021/10/16 02:40:54;;;;;;;11.45;7.57;;;;;;;3.25;100.00;96937.06;5043437;28;20059;-65
2021/10/16 02:43:20;;;;;;;12.90;7.57;;;;;;;3.19;100.00;96922.09;5021972;28;20112;-65
2021/10/16 02:45:45;;;;;;;15.75;7.97;;;;;;;3.23;100.00;96926.53;5023058;28;20530;-65
2021/10/16 02:48:11;;;;;;;11.70;7.55;;;;;;;3.19;100.00;96928.28;5018348;28;20037;-65
2021/10/16 02:50:36;;;;;;;12.18;7.63;;;;;;;3.24;100.00;96927.34;5017476;28;20038;-65
2021/10/16 02:53:02;;;;;;;12.68;7.78;;;;;;;3.21;100.00;96925.28;5019729;28;20561;-64
2021/10/16 02:55:27;;;;;;;12.98;7.82;;;;;;;3.16;100.00;96934.31;5003913;28;20042;-65
2021/10/16 02:57:53;;;;;;;14.23;8.73;;;;;;;2.98;100.00;96932.66;5004904;28;20045;-65
2021/10/16 03:00:18;;;;;;;11.18;8.02;;;;;;;2.88;100.00;96939.13;4999075;28;20046;-65
2021/10/16 03:02:43;;;;;;;17.45;7.90;;;;;;;2.83;100.00;96936.56;5003000;28;20163;-66
2021/10/16 03:05:09;;;;;;;13.45;8.00;;;;;;;2.92;100.00;96940.13;5017863;28;20045;-64
2021/10/16 03:07:35;;;;;;;12.82;7.95;;;;;;;2.89;100.00;96946.13;5023583;28;20092;-63
2021/10/16 03:10:00;;;;;;;12.90;7.90;;;;;;;2.60;100.00;96935.81;5037558;28;20156;-64
2021/10/16 03:12:26;;;;;;;16.52;9.25;;;;;;;2.62;100.00;96947.09;5022162;28;20129;-64
2021/10/16 03:14:51;;;;;;;19.00;11.30;;;;;;;2.73;100.00;96942.22;5019521;28;20042;-64
2021/10/16 03:17:17;;;;;;;22.30;9.82;;;;;;;2.75;100.00;96938.09;5004558;28;20076;-65
2021/10/16 03:19:43;;;;;;;15.85;10.20;;;;;;;2.71;100.00;96936.34;5035281;28;20443;-63
2021/10/16 03:22:08;;;;;;;17.70;9.07;;;;;;;2.75;100.00;96935.41;5000059;28;20045;-65
2021/10/16 03:24:35;;;;;;;15.02;8.55;;;;;;;2.77;100.00;96935.88;5006273;28;20041;-64
2021/10/16 03:27:01;;;;;;;14.07;8.20;;;;;;;2.83;100.00;96936.56;5033604;28;20128;-64
2021/10/16 03:29:27;;;;;;;14.95;8.35;;;;;;;2.65;100.00;96935.69;5024711;28;20068;-64
2021/10/16 03:31:52;;;;;;;13.45;8.48;;;;;;;2.51;100.00;96943.84;5053760;28;20045;-65
2021/10/16 03:34:18;;;;;;;12.13;8.02;;;;;;;2.52;100.00;96942.75;5039319;28;20045;-65
2021/10/16 03:36:43;;;;;;;12.77;7.90;;;;;;;2.32;100.00;96938.63;5019950;28;20109;-64
2021/10/16 03:39:09;;;;;;;11.98;7.72;;;;;;;2.22;100.00;96936.97;5005675;28;20645;-64
2021/10/16 03:41:34;;;;;;;15.88;7.90;;;;;;;2.19;100.00;96942.97;5022959;28;20048;-64
2021/10/16 03:44:00;;;;;;;14.23;8.63;;;;;;;2.11;100.00;96943.72;5023964;28;20077;-64
2021/10/16 03:46:25;;;;;;;15.60;9.05;;;;;;;2.08;100.00;96938.91;5011553;28;20084;-65
2021/10/16 03:48:51;;;;;;;15.70;9.00;;;;;;;1.95;100.00;96939.78;5029891;28;20049;-64
2021/10/16 03:51:16;;;;;;;15.63;8.90;;;;;;;1.91;100.00;96945.78;5014307;28;20057;-64
2021/10/16 03:53:42;;;;;;;20.23;10.32;;;;;;;1.97;100.00;96940.28;5038107;28;20052;-65
2021/10/16 03:56:07;;;;;;;17.98;10.25;;;;;;;2.03;100.00;96939.81;5023435;28;20048;-65
2021/10/16 03:58:32;;;;;;;17.73;9.52;;;;;;;2.14;100.00;96942.31;5036107;28;20123;-66
2021/10/16 04:01:03;;;;;;;15.40;9.35;;;;;;;2.16;100.00;96940.91;5043835;28;20041;-66
2021/10/16 04:03:29;;;;;;;15.80;9.70;;;;;;;2.24;100.00;96945.56;5041356;28;20124;-65
2021/10/16 04:05:54;;;;;;;13.00;8.43;;;;;;;2.16;100.00;96945.50;5037346;28;20037;-65
2021/10/16 04:08:20;;;;;;;14.18;8.80;;;;;;;2.31;100.00;96944.34;5028747;28;20048;-64
2021/10/16 04:10:46;;;;;;;13.27;8.95;;;;;;;2.24;100.00;96939.38;5041169;28;20051;-65
2021/10/16 04:13:11;;;;;;;15.27;8.75;;;;;;;2.18;100.00;96941.41;5023446;28;20124;-62
2021/10/16 04:15:37;;;;;;;15.35;8.50;;;;;;;2.13;100.00;96941.50;5025074;28;20911;-65
2021/10/16 04:18:03;;;;;;;11.95;7.65;;;;;;;2.19;100.00;96944.88;5026365;28;20867;-62
2021/10/16 04:20:29;;;;;;;12.15;8.20;;;;;;;2.23;100.00;96948.56;5014004;28;20048;-63
2021/10/16 04:22:54;;;;;;;15.10;8.45;;;;;;;2.21;100.00;96956.19;5009462;28;20045;-63
2021/10/16 04:25:20;;;;;;;11.23;6.97;;;;;;;2.20;100.00;96950.00;5024756;28;20044;-64
2021/10/16 04:27:45;;;;;;;13.88;7.47;;;;;;;2.17;100.00;96945.19;4999197;28;20049;-61
2021/10/16 04:30:11;;;;;;;12.18;7.68;;;;;;;2.24;100.00;96944.78;4993202;28;20104;-62
2021/10/16 04:32:36;;;;;;;13.85;7.90;;;;;;;2.24;100.00;96950.97;5021020;28;20041;-63
2021/10/16 04:35:04;;;;;;;12.82;7.53;;;;;;;2.11;100.00;96946.44;4993979;28;20044;-63
2021/10/16 04:37:30;;;;;;;9.48;6.47;;;;;;;1.96;100.00;96952.16;5026704;28;20045;-63
2021/10/16 04:39:55;;;;;;;11.13;6.75;;;;;;;1.96;100.00;96952.94;5032278;28;20053;-63
2021/10/16 04:42:21;;;;;;;11.00;7.40;;;;;;;2.05;100.00;96955.72;5017278;28;20612;-63
2021/10/16 04:44:46;;;;;;;15.52;6.72;;;;;;;2.02;100.00;96959.84;5024243;28;20054;-63
2021/10/16 04:47:12;;;;;;;10.55;6.60;;;;;;;1.90;100.00;96960.38;5019881;28;20429;-64
2021/10/16 04:49:37;;;;;;;11.05;7.25;;;;;;;1.72;100.00;96950.50;5009924;28;20041;-64
2021/10/16 04:52:04;;;;;;;11.57;7.07;;;;;;;1.61;100.00;96954.53;5022131;28;20045;-65
2021/10/16 04:54:31;;;;;;;12.40;9.07;;;;;;;1.47;100.00;96943.75;5003522;28;20127;-65
2021/10/16 04:56:56;;;;;;;13.95;8.55;;;;;;;1.42;100.00;96943.84;5028179;28;20401;-65
2021/10/16 04:59:22;;;;;;;15.90;8.80;;;;;;;1.34;100.00;96943.44;5021653;28;20053;-65
2021/10/16 05:01:47;;;;;;;16.08;9.10;;;;;;;1.19;100.00;96951.03;5034062;28;20044;-64
2021/10/16 05:04:12;;;;;;;15.73;9.45;;;;;;;1.21;100.00;96948.88;5021159;28;20041;-64
2021/10/16 05:06:38;;;;;;;17.23;10.05;;;;;;;1.29;100.00;96943.56;5027358;28;20046;-65
2021/10/16 05:09:03;;;;;;;19.55;9.88;;;;;;;1.19;100.00;96948.34;5023721;28;20339;-65
2021/10/16 05:11:29;;;;;;;17.77;10.85;;;;;;;1.11;100.00;96953.34;5000689;28;20045;-64
2021/10/16 05:13:55;;;;;;;18.58;10.82;;;;;;;1.04;100.00;96950.22;4996688;28;20052;-65
2021/10/16 05:16:20;;;;;;;17.83;10.60;;;;;;;1.01;100.00;96953.56;5005093;28;20191;-64
2021/10/16 05:18:46;;;;;;;19.85;10.23;;;;;;;1.03;100.00;96947.88;5025072;28;20044;-64
2021/10/16 05:21:13;;;;;;;16.45;9.07;;;;;;;1.14;100.00;96952.75;5022985;28;20514;-65
2021/10/16 05:23:38;;;;;;;15.52;9.35;;;;;;;1.31;100.00;96948.66;5038298;28;20163;-65
2021/10/16 05:26:04;;;;;;;16.40;9.40;;;;;;;1.46;100.00;96953.75;4989476;28;20042;-66
2021/10/16 05:28:30;;;;;;;18.52;9.05;;;;;;;1.39;100.00;96957.94;5028233;28;20041;-64
2021/10/16 05:30:55;;;;;;;15.27;8.88;;;;;;;1.43;100.00;96951.66;5020085;28;20478;-63
2021/10/16 05:33:20;;;;;;;15.68;8.27;;;;;;;1.55;100.00;96951.16;5000688;28;20533;-64
2021/10/16 05:35:46;;;;;;;12.55;7.90;;;;;;;1.58;100.00;96958.63;4997409;28;20454;-64
2021/10/16 05:38:12;;;;;;;11.98;6.97;;;;;;;1.47;100.00;96959.94;4997355;28;20076;-65
2021/10/16 05:40:38;;;;;;;12.80;7.60;;;;;;;1.33;100.00;96957.25;5027799;28;20097;-64
2021/10/16 05:43:04;;;;;;;12.82;7.55;;;;;;;1.29;100.00;96967.03;5028940;28;20516;-63
2021/10/16 05:45:29;;;;;;;15.25;8.02;;;;;;;1.04;100.00;96968.31;5023738;28;20049;-64
2021/10/16 05:47:55;;;;;;;14.77;8.90;;;;;;;0.82;100.00;96961.69;5025509;28;20037;-64
2021/10/16 05:50:20;;;;;;;14.82;9.52;;;;;;;0.82;100.00;96967.09;5030150;28;20073;-64
2021/10/16 05:52:45;;;;;;;15.25;9.45;;;;;;;0.82;100.00;96969.00;5037727;28;20041;-65
2021/10/16 05:55:11;;;;;;;17.65;10.98;;;;;;;0.93;100.00;96971.19;5040430;28;20056;-64
2021/10/16 05:57:36;;;;;;;19.40;10.52;;;;;;;1.00;100.00;96965.44;5023352;28;20076;-63
2021/10/16 06:00:03;;;;;;;17.73;9.60;;;;;;;1.12;100.00;96970.34;5034103;28;20037;-64
2021/10/16 06:02:29;;;;;;;18.08;9.45;;;;;;;1.28;100.00;96966.25;5001483;28;20048;-64
2021/10/16 06:04:54;;;;;;;15.95;9.88;;;;;;;1.20;100.00;96971.53;5022755;28;20049;-64
2021/10/16 06:07:20;;;;;;;15.73;9.98;;;;;;;1.17;100.00;96975.66;5021464;28;20060;-64
2021/10/16 06:09:46;;;;;;;15.68;9.77;;;;;;;1.22;100.00;96985.53;5023772;28;20045;-64
2021/10/16 06:12:11;;;;;;;20.95;10.85;;;;;;;1.38;100.00;96983.34;5029962;28;20410;-63
2021/10/16 06:14:37;;;;;;;16.67;9.93;;;;;;;1.62;100.00;96983.13;5029263;28;20050;-64
2021/10/16 06:17:03;;;;;;;20.80;10.60;;;;;;;1.68;100.00;96987.34;5022079;28;20585;-63
2021/10/16 06:19:29;;;;;;;20.08;11.07;;;;;;;1.64;100.00;96987.13;5033658;28;20053;-64
2021/10/16 06:21:55;;;;;;;17.80;9.85;;;;;;;1.85;100.00;96984.78;5039153;28;20068;-65
2021/10/16 06:24:20;;;;;;;17.40;10.68;;;;;;;2.07;100.00;96985.94;5021437;28;20045;-63
2021/10/16 06:26:46;;;;;;;20.20;10.35;;;;;;;2.33;100.00;96994.28;4982251;28;20084;-64
2021/10/16 06:29:11;;;;;;;15.30;9.10;;;;;;;2.50;100.00;96988.22;5020515;28;20110;-65
2021/10/16 06:31:37;;;;;;;20.08;10.55;;;;;;;2.36;100.00;96988.28;5017623;28;20071;-65
2021/10/16 06:34:02;;;;;;;17.00;9.63;;;;;;;2.51;100.00;96989.81;5033096;28;20072;-63
2021/10/16 06:36:28;;;;;;;17.75;10.07;;;;;;;2.36;100.00;96990.97;5051130;28;20131;-65
2021/10/16 06:38:53;;;;;;;19.38;11.10;;;;;;;2.29;100.00;96999.50;5049419;28;20080;-62
2021/10/16 06:41:19;;;;;;;15.80;9.80;;;;;;;2.56;100.00;96989.69;5022396;28;20056;-62
2021/10/16 06:43:44;;;;;;;17.23;9.90;;;;;;;2.91;100.00;96994.53;5027464;28;20076;-65
2021/10/16 06:46:10;;;;;;;14.98;9.45;;;;;;;3.24;100.00;96989.59;5021717;28;20516;-63
2021/10/16 06:48:35;;;;;;;20.35;9.73;;;;;;;3.52;100.00;96995.63;5015870;28;20049;-65
2021/10/16 06:51:00;;;;;;;18.13;10.75;;;;;;;3.78;100.00;96994.88;5026167;28;20505;-64
2021/10/16 06:53:26;;;;;;;18.50;9.77;;;;;;;4.01;100.00;97001.00;5026163;28;20049;-64
2021/10/16 06:55:51;;;;;;;21.33;9.93;;;;;;;4.38;100.00;96996.91;5022075;28;20048;-65
2021/10/16 06:58:17;;;;;;;24.17;11.63;;;;;;;5.07;100.00;97002.56;5043263;28;20048;-65
2021/10/16 07:00:42;;;;;;;19.02;9.35;;;;;;;6.11;100.00;96998.63;5026093;28;20021;-64
2021/10/16 07:03:08;;;;;;;22.25;10.65;;;;;;;7.18;94.72;97004.44;4998917;28;20064;-64
2021/10/16 07:05:34;;;;;;;16.58;9.45;;;;;;;8.18;86.52;97001.41;5023869;28;20713;-65
2021/10/16 07:08:00;;;;;;;18.27;9.68;;;;;;;8.56;83.78;97002.97;5030474;28;20243;-65
2021/10/16 07:10:26;;;;;;;17.25;9.18;;;;;;;9.29;79.94;97005.72;5035817;23;20442;-60
2021/10/16 07:12:53;;;;;;;16.25;9.48;;;;;;;10.26;75.73;97006.13;5021130;28;20080;-61
2021/10/16 07:15:18;;;;;;;16.58;8.30;;;;;;;10.66;71.44;96993.28;5026643;28;20046;-61
2021/10/16 07:17:43;;;;;;;17.42;8.77;;;;;;;10.62;74.85;96995.97;5032991;28;20068;-61
2021/10/16 07:20:09;;;;;;;17.40;8.20;;;;;;;10.77;71.66;96999.81;5027260;28;20150;-62
2021/10/16 07:22:34;;;;;;;15.60;8.70;;;;;;;11.92;68.13;96998.34;5016294;28;20084;-62
2021/10/16 07:25:00;;;;;;;15.02;8.70;;;;;;;12.51;66.08;97007.84;5031549;28;20418;-62
2021/10/16 07:27:26;;;;;;;16.35;9.45;;;;;;;12.90;65.17;96999.31;5029025;28;20050;-62
2021/10/16 07:29:51;;;;;;;16.42;9.23;;;;;;;13.50;62.78;96994.88;5026737;28;20037;-62
2021/10/16 07:32:16;;;;;;;17.23;8.90;;;;;;;14.03;59.04;96996.53;5038261;28;20076;-62
2021/10/16 07:34:42;;;;;;;17.48;10.13;;;;;;;14.03;58.19;96997.31;5036340;28;20037;-62
2021/10/16 07:37:08;;;;;;;16.30;10.23;;;;;;;13.41;61.83;96999.91;5022451;28;20045;-62
2021/10/16 07:39:33;;;;;;;18.42;9.73;;;;;;;14.47;60.38;96999.16;5039935;28;20056;-62
2021/10/16 07:41:59;;;;;;;16.33;9.73;;;;;;;14.76;58.40;97001.31;5036110;28;20048;-62
2021/10/16 07:44:24;;;;;;;21.42;11.52;;;;;;;13.14;62.38;97013.72;5022302;28;20130;-60
2021/10/16 07:46:50;;;;;;;16.02;10.57;;;;;;;13.88;63.06;97006.63;5019962;28;20099;-62
2021/10/16 07:49:16;;;;;;;20.10;10.05;;;;;;;14.74;58.19;97006.44;5016006;28;20041;-63
2021/10/16 07:51:41;;;;;;;15.77;10.43;;;;;;;13.77;62.49;97004.59;5033644;28;20044;-63
2021/10/16 07:54:07;;;;;;;17.52;10.10;;;;;;;13.80;61.82;97008.53;5028515;28;20044;-64
2021/10/16 07:56:33;;;;;;;19.13;10.48;;;;;;;13.51;64.07;97011.00;5033825;28;20135;-61
2021/10/16 07:58:59;;;;;;;16.90;10.65;;;;;;;13.48;63.64;97010.97;5041568;28;20179;-61
2021/10/16 08:01:24;;;;;;;17.25;10.45;;;;;;;12.96;66.41;97014.34;5027473;28;20536;-63
2021/10/16 08:03:50;;;;;;;19.35;10.63;;;;;;;14.54;62.56;97009.44;5022216;28;20059;-60
2021/10/16 08:06:15;;;;;;;16.02;10.55;;;;;;;14.66;61.26;97011.13;5028239;28;20049;-63
2021/10/16 08:08:40;;;;;;;15.43;9.68;;;;;;;14.67;61.27;97010.72;5034842;28;20041;-63
2021/10/16 08:11:06;;;;;;;17.52;10.35;;;;;;;15.41;59.69;97007.84;5035693;28;20041;-64
2021/10/16 08:13:31;;;;;;;18.60;11.02;;;;;;;16.15;54.47;97006.34;5030629;28;20132;-63
2021/10/16 08:15:58;;;;;;;16.35;10.25;;;;;;;17.00;53.19;97010.13;5036633;28;20057;-63
2021/10/16 08:18:24;;;;;;;16.40;10.65;;;;;;;15.84;55.79;97008.69;5033900;28;20899;-63
2021/10/16 08:20:50;;;;;;;14.50;10.00;;;;;;;16.33;55.10;97008.28;5040284;28;20375;-63
2021/10/16 08:23:16;;;;;;;14.23;9.70;;;;;;;17.59;51.52;97016.94;5031914;28;20048;-62
2021/10/16 08:25:42;;;;;;;17.73;10.80;;;;;;;15.98;55.68;97013.44;5040100;28;20047;-62
2021/10/16 08:28:12;;;;;;;16.98;10.20;;;;;;;16.98;54.05;97008.97;5031026;28;20051;-64
2021/10/16 08:30:40;;;;;;;19.13;11.00;;;;;;;15.81;56.43;97000.41;5042383;28;20037;-63
2021/10/16 08:33:06;;;;;;;17.25;10.90;;;;;;;16.87;53.76;97000.69;5037180;28;20473;-64
2021/10/16 08:35:32;;;;;;;18.63;9.80;;;;;;;17.59;50.76;97005.84;5039875;28;20072;-62
2021/10/16 08:37:57;;;;;;;19.38;10.80;;;;;;;17.13;51.64;97004.94;5023928;28;20071;-63
2021/10/16 08:40:25;;;;;;;16.70;10.65;;;;;;;15.37;56.62;97013.34;5032584;28;20041;-64
2021/10/16 08:42:52;;;;;;;17.10;10.63;;;;;;;14.18;63.35;97013.94;5031549;28;20039;-63
2021/10/16 08:45:18;;;;;;;21.00;12.60;;;;;;;15.27;59.46;97008.59;5033074;28;20493;-63
2021/10/16 08:47:45;;;;;;;17.60;10.82;;;;;;;16.22;57.66;97013.84;5031912;28;20120;-63
2021/10/16 08:50:11;;;;;;;15.77;10.25;;;;;;;17.77;52.29;97003.75;5032349;28;20076;-63
2021/10/16 08:52:38;;;;;;;17.38;10.90;;;;;;;18.07;49.84;97007.91;5027481;28;20064;-61
2021/10/16 08:55:05;;;;;;;23.00;11.20;;;;;;;17.57;51.23;97003.50;5011549;28;20037;-66
2021/10/16 08:57:38;;;;;;;17.77;9.90;;;;;;;18.10;49.55;97015.41;5039183;28;20041;-64
2021/10/16 09:00:54;;;;;;;17.95;10.90;;;;;;;18.21;50.69;97012.53;5032105;28;20056;-64
2021/10/16 09:03:25;;;;;;;19.95;10.65;;;;;;;18.76;48.10;97005.25;5025355;28;20045;-62
2021/10/16 09:06:01;;;;;;;16.92;10.80;;;;;;;19.26;45.58;97001.91;5035934;28;20041;-66
2021/10/16 09:08:35;;;;;;;16.92;10.48;;;;;;;19.53;46.21;96994.81;5024297;28;20801;-66
2021/10/16 09:11:27;;;;;;;16.90;10.82;;;;;;;19.56;45.92;97003.09;5033857;28;20124;-66
2021/10/16 09:13:58;;;;;;;15.35;9.85;;;;;;;18.84;47.88;97001.22;5028562;28;20040;-62
2021/10/16 09:16:47;;;;;;;23.00;12.50;;;;;;;19.03;47.37;97001.81;5026055;28;20079;-64
2021/10/16 09:19:21;;;;;;;17.08;10.75;;;;;;;19.16;47.58;97000.06;5012271;28;20041;-64
2021/10/16 09:21:53;;;;;;;18.20;11.68;;;;;;;18.92;47.99;96993.59;5019472;28;20127;-61
2021/10/16 09:24:26;;;;;;;16.52;10.77;;;;;;;18.63;48.27;96999.44;5029811;28;20041;-64
2021/10/16 09:26:54;;;;;;;17.80;11.35;;;;;;;15.61;56.77;96995.25;5033096;28;20056;-64
2021/10/16 09:29:23;;;;;;;18.13;9.90;;;;;;;17.13;54.88;97001.38;5034580;28;20041;-63
2021/10/16 09:31:50;;;;;;;16.48;10.65;;;;;;;19.14;48.28;96998.88;5032665;28;20041;-62
2021/10/16 09:34:27;;;;;;;18.92;10.65;;;;;;;19.67;46.46;96995.38;5029699;28;20068;-61
2021/10/16 09:37:01;;;;;;;17.55;11.05;;;;;;;19.19;47.49;96993.66;5031242;28;20363;-62
2021/10/16 09:39:26;;;;;;;17.92;10.65;;;;;;;18.52;48.98;97007.09;5031096;28;20033;-64
2021/10/16 09:41:52;;;;;;;16.30;9.98;;;;;;;20.00;45.77;96992.91;5039123;28;20120;-63
2021/10/16 09:44:29;;;;;;;18.27;11.43;;;;;;;19.54;46.89;96994.38;5030996;28;20041;-64
2021/10/16 09:47:11;;;;;;;24.00;16.38;;;;;;;19.78;46.17;96988.91;5038587;28;20374;-62
2021/10/16 09:49:48;;;;;;;18.60;11.27;;;;;;;19.67;45.84;96992.59;5038951;28;20033;-62
2021/10/16 09:52:19;;;;;;;17.70;11.07;;;;;;;19.41;46.96;96996.97;5001678;28;20076;-64
2021/10/16 09:54:47;;;;;;;20.58;11.68;;;;;;;19.17;47.90;96992.50;5036053;28;20048;-63
2021/10/16 09:57:15;;;;;;;16.45;11.00;;;;;;;18.52;49.78;96994.00;5031177;28;20040;-63
2021/10/16 09:59:42;;;;;;;21.87;12.30;;;;;;;18.59;49.51;97001.47;5040773;28;20056;-63
2021/10/16 10:02:10;;;;;;;18.95;11.77;;;;;;;18.28;50.25;96990.31;5015267;28;20116;-65
2021/10/16 10:04:45;;;;;;;18.55;11.90;;;;;;;17.94;50.48;96990.22;5018294;28;20398;-65
2021/10/16 10:07:12;;;;;;;20.02;11.88;;;;;;;18.64;49.04;96989.16;5013865;28;20057;-63
2021/10/16 10:09:41;;;;;;;18.60;10.48;;;;;;;18.52;49.98;96987.69;5039816;28;20041;-62
2021/10/16 10:12:08;;;;;;;17.75;11.20;;;;;;;18.08;51.31;96984.53;5033293;28;20565;-65
2021/10/16 10:14:37;;;;;;;24.10;10.75;;;;;;;17.77;52.20;96981.59;5040378;28;20507;-63
2021/10/16 10:17:07;;;;;;;17.45;10.45;;;;;;;17.52;53.54;96986.50;5039106;28;20041;-64
2021/10/16 10:19:38;;;;;;;18.08;10.75;;;;;;;17.39;53.59;96994.50;5037923;28;20041;-62
2021/10/16 10:22:09;;;;;;;20.02;11.32;;;;;;;17.08;54.04;96985.19;5024395;28;20394;-65
2021/10/16 10:24:41;;;;;;;20.17;11.00;;;;;;;17.13;53.89;96977.25;4999352;28;20046;-64
2021/10/16 10:27:09;;;;;;;17.73;10.25;;;;;;;17.46;53.68;96977.84;4991426;28;20064;-60
2021/10/16 10:29:40;;;;;;;18.83;11.48;;;;;;;17.19;54.37;96985.91;4999078;28;20042;-62
2021/10/16 10:32:15;;;;;;;15.55;10.15;;;;;;;17.25;54.64;96980.75;4998394;28;20130;-64
2021/10/16 10:34:52;;;;;;;17.45;10.95;;;;;;;17.20;55.31;96988.28;5003208;28;20048;-64
2021/10/16 10:37:18;;;;;;;20.55;10.88;;;;;;;17.06;55.67;96984.81;5019879;28;20045;-64
2021/10/16 10:39:45;;;;;;;15.57;9.68;;;;;;;17.23;54.88;96981.13;5041691;28;20052;-64
2021/10/16 10:42:13;;;;;;;17.40;11.35;;;;;;;17.02;55.64;96979.28;5018749;28;20044;-62
2021/10/16 10:44:46;;;;;;;22.83;10.40;;;;;;;17.20;55.06;96973.66;5041814;28;20037;-63
2021/10/16 10:47:25;;;;;;;18.90;10.75;;;;;;;16.47;56.60;96977.09;5037155;28;20091;-63
2021/10/16 10:49:53;;;;;;;18.13;11.55;;;;;;;16.32;58.45;96966.06;5041543;28;20079;-62
2021/10/16 10:52:21;;;;;;;16.33;10.23;;;;;;;16.50;58.75;96973.53;5026902;28;20041;-62
2021/10/16 10:54:59;;;;;;;20.08;10.88;;;;;;;16.39;58.82;96968.81;5042670;28;20085;-61
2021/10/16 10:57:56;;;;;;;20.25;12.80;;;;;;;16.19;58.59;96968.44;5037971;28;20041;-63
2021/10/16 11:00:35;;;;;;;17.98;10.88;;;;;;;15.95;60.21;96967.28;5037490;28;20079;-62
2021/10/16 11:03:21;;;;;;;17.63;11.07;;;;;;;15.55;61.07;96960.94;5002220;28;20530;-62
2021/10/16 11:05:46;;;;;;;17.77;10.80;;;;;;;15.54;62.16;96959.38;5016661;28;20076;-63
2021/10/16 11:08:14;;;;;;;19.45;11.40;;;;;;;15.12;63.55;96952.59;5034998;28;20575;-59
2021/10/16 11:10:41;;;;;;;20.77;12.02;;;;;;;15.48;63.40;96953.47;5027528;28;20137;-62
2021/10/16 11:13:14;;;;;;;19.00;11.18;;;;;;;15.57;62.24;96950.28;5032761;28;20390;-61
2021/10/16 11:15:44;;;;;;;20.98;11.82;;;;;;;16.22;60.87;96947.50;5040810;28;20087;-61
2021/10/16 11:18:11;;;;;;;19.80;11.35;;;;;;;16.61;59.33;96943.84;5037422;28;20044;-62
2021/10/16 11:20:36;;;;;;;20.90;11.27;;;;;;;17.16;57.96;96934.94;5042447;28;20057;-62
2021/10/16 11:23:03;;;;;;;19.65;10.63;;;;;;;18.00;55.37;96930.38;5042152;28;20048;-62